sensor_id;sensor_type;location;lat;lon;timestamp;temperature;humidity
12386;DHT22;6257;57.634;18.310;2023-08-31T00:02:11;15.30;99.90
12386;DHT22;6257;57.634;18.310;2023-08-31T00:07:06;15.40;99.90
12386;DHT22;6257;57.634;18.310;2023-08-31T00:09:33;15.40;99.90
12386;DHT22;6257;57.634;18.310;2023-08-31T00:12:01;15.40;99.90
12386;DHT22;6257;57.634;18.310;2023-08-31T00:14:28;15.30;99.90
12386;DHT22;6257;57.634;18.310;2023-08-31T00:16:55;15.20;99.90
12386;DHT22;6257;57.634;18.310;2023-08-31T00:19:23;15.10;99.90
12386;DHT22;6257;57.634;18.310;2023-08-31T00:21:52;15.10;99.90
12386;DHT22;6257;57.634;18.310;2023-08-31T00:24:19;15.00;99.90
12386;DHT22;6257;57.634;18.310;2023-08-31T00:26:48;15.00;99.90
12386;DHT22;6257;57.634;18.310;2023-08-31T00:29:16;15.00;99.90
12386;DHT22;6257;57.634;18.310;2023-08-31T00:31:43;15.00;99.90
12386;DHT22;6257;57.634;18.310;2023-08-31T00:34:10;15.00;99.90
12386;DHT22;6257;57.634;18.310;2023-08-31T00:36:40;15.10;99.90
12386;DHT22;6257;57.634;18.310;2023-08-31T00:39:08;15.20;99.90
12386;DHT22;6257;57.634;18.310;2023-08-31T00:41:36;15.30;99.90
12386;DHT22;6257;57.634;18.310;2023-08-31T00:44:04;15.40;99.90
12386;DHT22;6257;57.634;18.310;2023-08-31T00:46:32;15.60;99.90
12386;DHT22;6257;57.634;18.310;2023-08-31T00:48:59;15.70;99.90
12386;DHT22;6257;57.634;18.310;2023-08-31T00:51:26;15.70;99.90
12386;DHT22;6257;57.634;18.310;2023-08-31T00:53:53;15.70;99.90
12386;DHT22;6257;57.634;18.310;2023-08-31T00:56:22;15.80;99.90
12386;DHT22;6257;57.634;18.310;2023-08-31T00:58:49;15.80;99.90
12386;DHT22;6257;57.634;18.310;2023-08-31T01:01:22;15.80;99.90
12386;DHT22;6257;57.634;18.310;2023-08-31T01:03:57;15.80;99.90
12386;DHT22;6257;57.634;18.310;2023-08-31T01:06:32;15.80;99.90
12386;DHT22;6257;57.634;18.310;2023-08-31T01:09:09;15.70;99.90
12386;DHT22;6257;57.634;18.310;2023-08-31T01:11:49;15.70;99.90
12386;DHT22;6257;57.634;18.310;2023-08-31T01:14:19;15.70;99.90
12386;DHT22;6257;57.634;18.310;2023-08-31T01:16:49;15.70;99.90
12386;DHT22;6257;57.634;18.310;2023-08-31T01:19:26;15.60;99.90
12386;DHT22;6257;57.634;18.310;2023-08-31T01:22:00;15.60;99.90
12386;DHT22;6257;57.634;18.310;2023-08-31T01:24:32;15.60;99.90
12386;DHT22;6257;57.634;18.310;2023-08-31T01:26:59;15.60;99.90
12386;DHT22;6257;57.634;18.310;2023-08-31T01:29:26;15.60;99.90
12386;DHT22;6257;57.634;18.310;2023-08-31T01:31:53;15.70;99.90
12386;DHT22;6257;57.634;18.310;2023-08-31T01:34:20;15.70;99.90
12386;DHT22;6257;57.634;18.310;2023-08-31T01:36:51;15.70;99.90
12386;DHT22;6257;57.634;18.310;2023-08-31T01:39:26;15.70;99.90
12386;DHT22;6257;57.634;18.310;2023-08-31T01:42:02;15.70;99.90
12386;DHT22;6257;57.634;18.310;2023-08-31T01:44:31;15.60;99.90
12386;DHT22;6257;57.634;18.310;2023-08-31T01:47:02;15.70;99.90
12386;DHT22;6257;57.634;18.310;2023-08-31T01:49:28;15.70;99.90
12386;DHT22;6257;57.634;18.310;2023-08-31T01:52:02;15.70;99.90
12386;DHT22;6257;57.634;18.310;2023-08-31T01:54:29;15.80;99.90
12386;DHT22;6257;57.634;18.310;2023-08-31T01:56:58;15.80;99.90
12386;DHT22;6257;57.634;18.310;2023-08-31T01:59:25;15.80;99.90
12386;DHT22;6257;57.634;18.310;2023-08-31T02:01:52;15.80;99.90
12386;DHT22;6257;57.634;18.310;2023-08-31T02:04:19;15.70;99.90
12386;DHT22;6257;57.634;18.310;2023-08-31T02:06:46;15.80;99.90
12386;DHT22;6257;57.634;18.310;2023-08-31T02:09:14;15.80;99.90
12386;DHT22;6257;57.634;18.310;2023-08-31T02:11:41;15.80;99.90
12386;DHT22;6257;57.634;18.310;2023-08-31T02:14:09;15.80;99.90
12386;DHT22;6257;57.634;18.310;2023-08-31T02:16:36;15.80;99.90
12386;DHT22;6257;57.634;18.310;2023-08-31T02:19:02;15.80;99.90
12386;DHT22;6257;57.634;18.310;2023-08-31T02:21:29;15.80;99.90
12386;DHT22;6257;57.634;18.310;2023-08-31T02:23:56;15.80;99.90
12386;DHT22;6257;57.634;18.310;2023-08-31T02:26:23;15.80;99.90
12386;DHT22;6257;57.634;18.310;2023-08-31T02:28:50;15.70;99.90
12386;DHT22;6257;57.634;18.310;2023-08-31T02:31:19;15.70;99.90
12386;DHT22;6257;57.634;18.310;2023-08-31T02:33:46;15.70;99.90
12386;DHT22;6257;57.634;18.310;2023-08-31T02:36:14;15.70;99.90
12386;DHT22;6257;57.634;18.310;2023-08-31T02:38:41;15.70;99.90
12386;DHT22;6257;57.634;18.310;2023-08-31T02:41:08;15.70;99.90
12386;DHT22;6257;57.634;18.310;2023-08-31T02:43:35;14.60;99.90
12386;DHT22;6257;57.634;18.310;2023-08-31T02:46:02;15.70;99.90
12386;DHT22;6257;57.634;18.310;2023-08-31T02:48:32;15.80;99.90
12386;DHT22;6257;57.634;18.310;2023-08-31T02:51:00;15.70;99.90
12386;DHT22;6257;57.634;18.310;2023-08-31T02:53:29;15.70;99.90
12386;DHT22;6257;57.634;18.310;2023-08-31T02:55:56;15.70;99.90
12386;DHT22;6257;57.634;18.310;2023-08-31T02:58:23;15.70;99.90
12386;DHT22;6257;57.634;18.310;2023-08-31T03:00:50;15.70;99.90
12386;DHT22;6257;57.634;18.310;2023-08-31T03:03:18;15.70;99.90
12386;DHT22;6257;57.634;18.310;2023-08-31T03:05:47;15.70;99.90
12386;DHT22;6257;57.634;18.310;2023-08-31T03:08:14;15.70;99.90
12386;DHT22;6257;57.634;18.310;2023-08-31T03:10:41;15.70;99.90
12386;DHT22;6257;57.634;18.310;2023-08-31T03:13:08;15.70;99.90
12386;DHT22;6257;57.634;18.310;2023-08-31T03:15:35;15.60;99.90
12386;DHT22;6257;57.634;18.310;2023-08-31T03:18:03;15.60;99.90
12386;DHT22;6257;57.634;18.310;2023-08-31T03:20:30;15.60;99.90
12386;DHT22;6257;57.634;18.310;2023-08-31T03:22:58;15.50;99.90
12386;DHT22;6257;57.634;18.310;2023-08-31T03:25:27;15.50;99.90
12386;DHT22;6257;57.634;18.310;2023-08-31T03:27:54;15.40;99.90
12386;DHT22;6257;57.634;18.310;2023-08-31T03:30:21;15.40;99.90
12386;DHT22;6257;57.634;18.310;2023-08-31T03:32:48;15.40;99.90
12386;DHT22;6257;57.634;18.310;2023-08-31T03:35:15;15.40;99.90
12386;DHT22;6257;57.634;18.310;2023-08-31T03:37:42;15.30;99.90
12386;DHT22;6257;57.634;18.310;2023-08-31T03:40:11;15.30;99.90
12386;DHT22;6257;57.634;18.310;2023-08-31T03:42:38;16.50;99.90
12386;DHT22;6257;57.634;18.310;2023-08-31T03:45:06;15.40;99.90
12386;DHT22;6257;57.634;18.310;2023-08-31T03:47:33;15.40;99.90
12386;DHT22;6257;57.634;18.310;2023-08-31T03:50:00;15.40;99.90
12386;DHT22;6257;57.634;18.310;2023-08-31T03:52:27;15.40;99.90
12386;DHT22;6257;57.634;18.310;2023-08-31T03:54:54;15.40;99.90
12386;DHT22;6257;57.634;18.310;2023-08-31T03:57:22;15.40;99.90
12386;DHT22;6257;57.634;18.310;2023-08-31T03:59:50;15.40;99.90
12386;DHT22;6257;57.634;18.310;2023-08-31T04:02:17;15.30;99.90
12386;DHT22;6257;57.634;18.310;2023-08-31T04:04:44;15.30;99.90
12386;DHT22;6257;57.634;18.310;2023-08-31T04:07:11;15.30;99.90
12386;DHT22;6257;57.634;18.310;2023-08-31T04:09:38;15.30;99.90
12386;DHT22;6257;57.634;18.310;2023-08-31T04:12:05;15.30;99.90
12386;DHT22;6257;57.634;18.310;2023-08-31T04:14:34;15.30;99.90
12386;DHT22;6257;57.634;18.310;2023-08-31T04:17:01;15.20;99.90
12386;DHT22;6257;57.634;18.310;2023-08-31T04:19:30;15.20;99.90
12386;DHT22;6257;57.634;18.310;2023-08-31T04:21:57;15.20;99.90
12386;DHT22;6257;57.634;18.310;2023-08-31T04:24:24;15.20;99.90
12386;DHT22;6257;57.634;18.310;2023-08-31T04:26:51;15.20;99.90
12386;DHT22;6257;57.634;18.310;2023-08-31T04:29:18;15.20;99.90
12386;DHT22;6257;57.634;18.310;2023-08-31T04:31:47;15.10;99.90
12386;DHT22;6257;57.634;18.310;2023-08-31T04:34:13;15.10;99.90
12386;DHT22;6257;57.634;18.310;2023-08-31T04:36:41;15.00;99.90
12386;DHT22;6257;57.634;18.310;2023-08-31T04:39:08;15.10;99.90
12386;DHT22;6257;57.634;18.310;2023-08-31T04:41:35;15.00;99.90
12386;DHT22;6257;57.634;18.310;2023-08-31T04:44:02;15.00;99.90
12386;DHT22;6257;57.634;18.310;2023-08-31T04:46:29;15.00;99.90
12386;DHT22;6257;57.634;18.310;2023-08-31T04:48:58;15.10;99.90
12386;DHT22;6257;57.634;18.310;2023-08-31T04:51:29;15.10;99.90
12386;DHT22;6257;57.634;18.310;2023-08-31T04:53:57;15.10;99.90
12386;DHT22;6257;57.634;18.310;2023-08-31T04:56:25;15.10;99.90
12386;DHT22;6257;57.634;18.310;2023-08-31T04:58:52;15.10;99.90
12386;DHT22;6257;57.634;18.310;2023-08-31T05:01:19;15.10;99.90
12386;DHT22;6257;57.634;18.310;2023-08-31T05:03:46;15.10;99.90
12386;DHT22;6257;57.634;18.310;2023-08-31T05:06:15;15.10;99.90
12386;DHT22;6257;57.634;18.310;2023-08-31T05:08:42;15.10;99.90
12386;DHT22;6257;57.634;18.310;2023-08-31T05:11:09;15.00;99.90
12386;DHT22;6257;57.634;18.310;2023-08-31T05:13:36;15.00;99.90
12386;DHT22;6257;57.634;18.310;2023-08-31T05:16:03;15.00;99.90
12386;DHT22;6257;57.634;18.310;2023-08-31T05:18:30;15.10;99.90
12386;DHT22;6257;57.634;18.310;2023-08-31T05:20:57;15.10;99.90
12386;DHT22;6257;57.634;18.310;2023-08-31T05:23:26;15.20;99.90
12386;DHT22;6257;57.634;18.310;2023-08-31T05:25:53;16.00;99.90
12386;DHT22;6257;57.634;18.310;2023-08-31T05:28:22;15.30;99.90
12386;DHT22;6257;57.634;18.310;2023-08-31T05:30:50;15.40;99.90
12386;DHT22;6257;57.634;18.310;2023-08-31T05:33:17;15.40;99.90
12386;DHT22;6257;57.634;18.310;2023-08-31T05:35:45;15.40;99.90
12386;DHT22;6257;57.634;18.310;2023-08-31T05:38:12;15.60;99.90
12386;DHT22;6257;57.634;18.310;2023-08-31T05:40:40;15.50;99.90
12386;DHT22;6257;57.634;18.310;2023-08-31T05:43:11;15.50;99.90
12386;DHT22;6257;57.634;18.310;2023-08-31T05:45:38;15.60;99.90
12386;DHT22;6257;57.634;18.310;2023-08-31T05:48:05;15.70;99.90
12386;DHT22;6257;57.634;18.310;2023-08-31T05:50:32;15.80;99.90
12386;DHT22;6257;57.634;18.310;2023-08-31T05:53:00;15.90;99.90
12386;DHT22;6257;57.634;18.310;2023-08-31T06:00:23;16.40;99.90
12386;DHT22;6257;57.634;18.310;2023-08-31T06:02:50;16.60;99.90
12386;DHT22;6257;57.634;18.310;2023-08-31T06:05:17;16.60;99.90
12386;DHT22;6257;57.634;18.310;2023-08-31T06:07:45;16.70;99.90
12386;DHT22;6257;57.634;18.310;2023-08-31T06:10:12;16.60;99.90
12386;DHT22;6257;57.634;18.310;2023-08-31T06:12:40;16.60;99.90
12386;DHT22;6257;57.634;18.310;2023-08-31T06:15:09;16.50;99.90
12386;DHT22;6257;57.634;18.310;2023-08-31T06:17:37;16.50;99.90
12386;DHT22;6257;57.634;18.310;2023-08-31T06:20:05;16.60;99.90
12386;DHT22;6257;57.634;18.310;2023-08-31T06:22:32;16.70;99.90
12386;DHT22;6257;57.634;18.310;2023-08-31T06:24:59;16.70;99.90
12386;DHT22;6257;57.634;18.310;2023-08-31T06:27:26;16.70;99.90
12386;DHT22;6257;57.634;18.310;2023-08-31T06:29:53;16.70;99.90
12386;DHT22;6257;57.634;18.310;2023-08-31T06:32:23;16.70;99.90
12386;DHT22;6257;57.634;18.310;2023-08-31T06:34:50;16.80;99.90
12386;DHT22;6257;57.634;18.310;2023-08-31T06:37:17;16.80;99.90
12386;DHT22;6257;57.634;18.310;2023-08-31T06:39:44;16.80;99.90
12386;DHT22;6257;57.634;18.310;2023-08-31T06:42:11;16.80;99.90
12386;DHT22;6257;57.634;18.310;2023-08-31T06:44:38;16.90;99.90
12386;DHT22;6257;57.634;18.310;2023-08-31T06:47:05;16.80;99.90
12386;DHT22;6257;57.634;18.310;2023-08-31T06:49:34;16.80;99.90
12386;DHT22;6257;57.634;18.310;2023-08-31T06:52:01;16.90;99.90
12386;DHT22;6257;57.634;18.310;2023-08-31T06:54:28;16.90;99.90
12386;DHT22;6257;57.634;18.310;2023-08-31T06:56:55;17.00;99.90
12386;DHT22;6257;57.634;18.310;2023-08-31T06:59:23;17.00;99.90
12386;DHT22;6257;57.634;18.310;2023-08-31T07:01:50;17.00;99.90
12386;DHT22;6257;57.634;18.310;2023-08-31T07:04:17;16.90;99.90
12386;DHT22;6257;57.634;18.310;2023-08-31T07:09:13;16.90;99.90
12386;DHT22;6257;57.634;18.310;2023-08-31T07:11:40;16.90;99.90
12386;DHT22;6257;57.634;18.310;2023-08-31T07:14:07;17.00;99.90
12386;DHT22;6257;57.634;18.310;2023-08-31T07:16:34;16.40;99.90
12386;DHT22;6257;57.634;18.310;2023-08-31T07:19:01;17.10;99.90
12386;DHT22;6257;57.634;18.310;2023-08-31T07:21:29;17.10;99.90
12386;DHT22;6257;57.634;18.310;2023-08-31T07:23:58;17.10;99.90
12386;DHT22;6257;57.634;18.310;2023-08-31T07:28:52;17.20;99.90
12386;DHT22;6257;57.634;18.310;2023-08-31T07:31:19;17.30;99.90
12386;DHT22;6257;57.634;18.310;2023-08-31T07:33:46;17.40;99.90
12386;DHT22;6257;57.634;18.310;2023-08-31T07:36:13;17.60;99.90
12386;DHT22;6257;57.634;18.310;2023-08-31T07:38:41;17.70;99.90
12386;DHT22;6257;57.634;18.310;2023-08-31T07:41:09;17.70;99.90
12386;DHT22;6257;57.634;18.310;2023-08-31T07:43:36;17.70;99.90
12386;DHT22;6257;57.634;18.310;2023-08-31T07:46:03;17.70;99.90
12386;DHT22;6257;57.634;18.310;2023-08-31T07:48:30;17.70;99.90
12386;DHT22;6257;57.634;18.310;2023-08-31T07:50:57;17.70;99.90
12386;DHT22;6257;57.634;18.310;2023-08-31T07:53:24;18.00;99.90
12386;DHT22;6257;57.634;18.310;2023-08-31T07:55:52;18.20;99.90
12386;DHT22;6257;57.634;18.310;2023-08-31T07:58:23;18.50;99.90
12386;DHT22;6257;57.634;18.310;2023-08-31T08:00:53;19.10;99.90
12386;DHT22;6257;57.634;18.310;2023-08-31T08:03:20;19.30;99.90
12386;DHT22;6257;57.634;18.310;2023-08-31T08:05:48;19.50;99.90
12386;DHT22;6257;57.634;18.310;2023-08-31T08:08:15;19.90;99.90
12386;DHT22;6257;57.634;18.310;2023-08-31T08:10:42;20.40;99.90
12386;DHT22;6257;57.634;18.310;2023-08-31T08:13:09;21.10;99.90
12386;DHT22;6257;57.634;18.310;2023-08-31T08:15:38;21.60;99.90
12386;DHT22;6257;57.634;18.310;2023-08-31T08:18:05;21.50;99.90
12386;DHT22;6257;57.634;18.310;2023-08-31T08:20:32;22.10;99.90
12386;DHT22;6257;57.634;18.310;2023-08-31T08:22:59;22.70;99.90
12386;DHT22;6257;57.634;18.310;2023-08-31T08:25:26;23.30;99.90
12386;DHT22;6257;57.634;18.310;2023-08-31T08:27:53;23.00;99.90
12386;DHT22;6257;57.634;18.310;2023-08-31T08:30:20;22.30;99.90
12386;DHT22;6257;57.634;18.310;2023-08-31T08:32:48;21.10;99.90
12386;DHT22;6257;57.634;18.310;2023-08-31T08:35:16;20.50;99.90
12386;DHT22;6257;57.634;18.310;2023-08-31T08:37:43;20.10;99.90
12386;DHT22;6257;57.634;18.310;2023-08-31T08:40:10;19.90;99.90
12386;DHT22;6257;57.634;18.310;2023-08-31T08:42:41;19.50;99.90
12386;DHT22;6257;57.634;18.310;2023-08-31T08:45:10;19.00;99.90
12386;DHT22;6257;57.634;18.310;2023-08-31T08:47:41;19.10;99.90
12386;DHT22;6257;57.634;18.310;2023-08-31T08:52:38;19.50;99.90
12386;DHT22;6257;57.634;18.310;2023-08-31T08:55:06;19.30;99.90
12386;DHT22;6257;57.634;18.310;2023-08-31T08:57:34;18.80;99.90
12386;DHT22;6257;57.634;18.310;2023-08-31T09:00:01;18.70;99.90
12386;DHT22;6257;57.634;18.310;2023-08-31T09:02:29;18.40;99.90
12386;DHT22;6257;57.634;18.310;2023-08-31T09:04:56;18.30;99.90
12386;DHT22;6257;57.634;18.310;2023-08-31T09:09:53;18.30;99.90
12386;DHT22;6257;57.634;18.310;2023-08-31T09:12:22;18.20;99.90
12386;DHT22;6257;57.634;18.310;2023-08-31T09:14:57;18.10;99.90
12386;DHT22;6257;57.634;18.310;2023-08-31T09:17:25;18.00;99.90
12386;DHT22;6257;57.634;18.310;2023-08-31T09:19:59;17.80;99.90
12386;DHT22;6257;57.634;18.310;2023-08-31T09:22:28;17.60;99.90
12386;DHT22;6257;57.634;18.310;2023-08-31T09:24:55;17.50;99.90
12386;DHT22;6257;57.634;18.310;2023-08-31T09:27:22;17.50;99.90
12386;DHT22;6257;57.634;18.310;2023-08-31T09:29:50;17.50;99.90
12386;DHT22;6257;57.634;18.310;2023-08-31T09:32:21;17.40;99.90
12386;DHT22;6257;57.634;18.310;2023-08-31T09:34:48;17.50;99.90
12386;DHT22;6257;57.634;18.310;2023-08-31T09:37:16;17.50;99.90
12386;DHT22;6257;57.634;18.310;2023-08-31T09:39:44;17.60;99.90
12386;DHT22;6257;57.634;18.310;2023-08-31T09:42:11;17.70;99.90
12386;DHT22;6257;57.634;18.310;2023-08-31T09:44:40;17.80;99.90
12386;DHT22;6257;57.634;18.310;2023-08-31T09:47:08;17.80;99.90
12386;DHT22;6257;57.634;18.310;2023-08-31T09:49:37;17.90;99.90
12386;DHT22;6257;57.634;18.310;2023-08-31T09:52:05;17.90;99.90
12386;DHT22;6257;57.634;18.310;2023-08-31T09:54:35;18.00;99.90
12386;DHT22;6257;57.634;18.310;2023-08-31T09:57:05;18.00;99.90
12386;DHT22;6257;57.634;18.310;2023-08-31T09:59:32;18.00;99.90
12386;DHT22;6257;57.634;18.310;2023-08-31T10:02:00;18.10;99.90
12386;DHT22;6257;57.634;18.310;2023-08-31T10:04:29;18.20;99.90
12386;DHT22;6257;57.634;18.310;2023-08-31T10:06:59;18.20;99.90
12386;DHT22;6257;57.634;18.310;2023-08-31T10:09:26;18.20;99.90
12386;DHT22;6257;57.634;18.310;2023-08-31T10:11:55;18.20;99.90
12386;DHT22;6257;57.634;18.310;2023-08-31T10:14:23;18.30;99.90
12386;DHT22;6257;57.634;18.310;2023-08-31T10:16:52;18.20;99.90
12386;DHT22;6257;57.634;18.310;2023-08-31T10:19:20;18.10;99.90
12386;DHT22;6257;57.634;18.310;2023-08-31T10:21:47;18.10;99.90
12386;DHT22;6257;57.634;18.310;2023-08-31T10:24:14;18.00;99.90
12386;DHT22;6257;57.634;18.310;2023-08-31T10:26:41;17.90;99.90
12386;DHT22;6257;57.634;18.310;2023-08-31T10:29:27;17.80;99.90
12386;DHT22;6257;57.634;18.310;2023-08-31T10:31:58;17.80;99.90
12386;DHT22;6257;57.634;18.310;2023-08-31T10:34:36;17.70;99.90
12386;DHT22;6257;57.634;18.310;2023-08-31T10:37:19;17.80;99.90
12386;DHT22;6257;57.634;18.310;2023-08-31T10:39:47;17.80;99.90
12386;DHT22;6257;57.634;18.310;2023-08-31T10:42:14;18.00;99.90
12386;DHT22;6257;57.634;18.310;2023-08-31T10:47:10;18.20;99.90
12386;DHT22;6257;57.634;18.310;2023-08-31T10:49:38;18.20;99.90
12386;DHT22;6257;57.634;18.310;2023-08-31T10:52:18;18.00;99.90
12386;DHT22;6257;57.634;18.310;2023-08-31T10:54:46;17.80;99.90
12386;DHT22;6257;57.634;18.310;2023-08-31T10:57:14;17.80;99.90
12386;DHT22;6257;57.634;18.310;2023-08-31T10:59:44;17.70;99.90
12386;DHT22;6257;57.634;18.310;2023-08-31T11:02:27;17.70;99.90
12386;DHT22;6257;57.634;18.310;2023-08-31T11:04:55;17.70;99.90
12386;DHT22;6257;57.634;18.310;2023-08-31T11:07:27;17.70;99.90
12386;DHT22;6257;57.634;18.310;2023-08-31T11:10:07;17.60;99.90
12386;DHT22;6257;57.634;18.310;2023-08-31T11:12:35;17.50;99.90
12386;DHT22;6257;57.634;18.310;2023-08-31T11:15:04;19.00;99.90
12386;DHT22;6257;57.634;18.310;2023-08-31T11:17:32;17.50;99.90
12386;DHT22;6257;57.634;18.310;2023-08-31T11:20:01;17.50;99.90
12386;DHT22;6257;57.634;18.310;2023-08-31T11:22:31;17.60;99.90
12386;DHT22;6257;57.634;18.310;2023-08-31T11:24:58;17.70;99.90
12386;DHT22;6257;57.634;18.310;2023-08-31T11:27:26;17.80;99.90
12386;DHT22;6257;57.634;18.310;2023-08-31T11:29:53;17.80;99.90
12386;DHT22;6257;57.634;18.310;2023-08-31T11:32:23;17.90;99.90
12386;DHT22;6257;57.634;18.310;2023-08-31T11:34:50;18.00;99.90
12386;DHT22;6257;57.634;18.310;2023-08-31T11:37:17;18.10;99.90
12386;DHT22;6257;57.634;18.310;2023-08-31T11:39:49;18.10;99.90
12386;DHT22;6257;57.634;18.310;2023-08-31T11:42:17;18.20;99.90
12386;DHT22;6257;57.634;18.310;2023-08-31T11:44:46;18.10;99.90
12386;DHT22;6257;57.634;18.310;2023-08-31T11:47:13;18.20;99.90
12386;DHT22;6257;57.634;18.310;2023-08-31T11:49:42;18.10;99.90
12386;DHT22;6257;57.634;18.310;2023-08-31T11:52:11;18.10;99.90
12386;DHT22;6257;57.634;18.310;2023-08-31T11:54:39;18.10;99.90
12386;DHT22;6257;57.634;18.310;2023-08-31T11:57:07;18.10;99.90
12386;DHT22;6257;57.634;18.310;2023-08-31T11:59:35;18.10;99.90
12386;DHT22;6257;57.634;18.310;2023-08-31T12:02:05;18.30;99.90
12386;DHT22;6257;57.634;18.310;2023-08-31T12:04:32;18.20;99.90
12386;DHT22;6257;57.634;18.310;2023-08-31T12:07:03;18.10;99.90
12386;DHT22;6257;57.634;18.310;2023-08-31T12:09:32;18.00;99.90
12386;DHT22;6257;57.634;18.310;2023-08-31T12:11:59;18.00;99.90
12386;DHT22;6257;57.634;18.310;2023-08-31T12:14:27;18.10;99.90
12386;DHT22;6257;57.634;18.310;2023-08-31T12:17:01;18.00;99.90
12386;DHT22;6257;57.634;18.310;2023-08-31T12:19:29;17.90;99.90
12386;DHT22;6257;57.634;18.310;2023-08-31T12:21:57;17.90;99.90
12386;DHT22;6257;57.634;18.310;2023-08-31T12:26:53;17.90;99.90
12386;DHT22;6257;57.634;18.310;2023-08-31T12:29:21;17.90;99.90
12386;DHT22;6257;57.634;18.310;2023-08-31T12:31:48;18.00;99.90
12386;DHT22;6257;57.634;18.310;2023-08-31T12:34:16;17.90;99.90
12386;DHT22;6257;57.634;18.310;2023-08-31T12:36:43;18.00;99.90
12386;DHT22;6257;57.634;18.310;2023-08-31T12:39:10;18.00;99.90
12386;DHT22;6257;57.634;18.310;2023-08-31T12:41:39;18.00;99.90
12386;DHT22;6257;57.634;18.310;2023-08-31T12:44:07;17.90;99.90
12386;DHT22;6257;57.634;18.310;2023-08-31T12:46:34;17.90;99.90
12386;DHT22;6257;57.634;18.310;2023-08-31T12:49:02;17.90;99.90
12386;DHT22;6257;57.634;18.310;2023-08-31T12:51:30;17.90;99.90
12386;DHT22;6257;57.634;18.310;2023-08-31T12:53:57;18.00;99.90
12386;DHT22;6257;57.634;18.310;2023-08-31T12:56:24;18.00;99.90
12386;DHT22;6257;57.634;18.310;2023-08-31T12:58:53;18.00;99.90
12386;DHT22;6257;57.634;18.310;2023-08-31T13:01:21;18.00;99.90
12386;DHT22;6257;57.634;18.310;2023-08-31T13:03:49;18.10;99.90
12386;DHT22;6257;57.634;18.310;2023-08-31T13:06:18;18.00;99.90
12386;DHT22;6257;57.634;18.310;2023-08-31T13:08:46;17.90;99.90
12386;DHT22;6257;57.634;18.310;2023-08-31T13:11:13;17.90;99.90
12386;DHT22;6257;57.634;18.310;2023-08-31T13:13:40;18.00;99.90
12386;DHT22;6257;57.634;18.310;2023-08-31T13:16:09;18.00;99.90
12386;DHT22;6257;57.634;18.310;2023-08-31T13:18:36;18.10;99.90
12386;DHT22;6257;57.634;18.310;2023-08-31T13:21:03;18.10;99.90
12386;DHT22;6257;57.634;18.310;2023-08-31T13:23:30;18.10;99.90
12386;DHT22;6257;57.634;18.310;2023-08-31T13:25:58;18.20;99.90
12386;DHT22;6257;57.634;18.310;2023-08-31T13:28:25;18.30;99.90
12386;DHT22;6257;57.634;18.310;2023-08-31T13:30:55;18.50;99.90
12386;DHT22;6257;57.634;18.310;2023-08-31T13:33:24;18.60;99.90
12386;DHT22;6257;57.634;18.310;2023-08-31T13:35:51;18.60;99.90
12386;DHT22;6257;57.634;18.310;2023-08-31T13:38:18;18.60;99.90
12386;DHT22;6257;57.634;18.310;2023-08-31T13:40:45;18.40;99.90
12386;DHT22;6257;57.634;18.310;2023-08-31T13:43:12;18.30;99.90
12386;DHT22;6257;57.634;18.310;2023-08-31T13:45:39;18.20;99.90
12386;DHT22;6257;57.634;18.310;2023-08-31T13:48:06;18.00;99.90
12386;DHT22;6257;57.634;18.310;2023-08-31T13:53:03;17.80;99.90
12386;DHT22;6257;57.634;18.310;2023-08-31T13:55:30;17.90;99.90
12386;DHT22;6257;57.634;18.310;2023-08-31T13:58:03;18.00;99.90
12386;DHT22;6257;57.634;18.310;2023-08-31T14:00:30;18.10;99.90
12386;DHT22;6257;57.634;18.310;2023-08-31T14:02:57;18.20;99.90
12386;DHT22;6257;57.634;18.310;2023-08-31T14:05:28;18.20;99.90
12386;DHT22;6257;57.634;18.310;2023-08-31T14:07:57;17.70;99.90
12386;DHT22;6257;57.634;18.310;2023-08-31T14:10:27;18.30;99.90
12386;DHT22;6257;57.634;18.310;2023-08-31T14:12:54;18.20;99.90
12386;DHT22;6257;57.634;18.310;2023-08-31T14:15:20;18.10;99.90
12386;DHT22;6257;57.634;18.310;2023-08-31T14:17:50;18.00;99.90
12386;DHT22;6257;57.634;18.310;2023-08-31T14:20:17;17.90;99.90
12386;DHT22;6257;57.634;18.310;2023-08-31T14:22:44;17.90;99.90
12386;DHT22;6257;57.634;18.310;2023-08-31T14:25:14;17.80;99.90
12386;DHT22;6257;57.634;18.310;2023-08-31T14:27:41;17.80;99.90
12386;DHT22;6257;57.634;18.310;2023-08-31T14:30:09;17.80;99.90
12386;DHT22;6257;57.634;18.310;2023-08-31T14:32:36;17.70;99.90
12386;DHT22;6257;57.634;18.310;2023-08-31T14:35:03;17.70;99.90
12386;DHT22;6257;57.634;18.310;2023-08-31T14:37:32;17.70;99.90
12386;DHT22;6257;57.634;18.310;2023-08-31T14:39:59;17.70;99.90
12386;DHT22;6257;57.634;18.310;2023-08-31T14:42:27;17.60;99.90
12386;DHT22;6257;57.634;18.310;2023-08-31T14:44:54;17.60;99.90
12386;DHT22;6257;57.634;18.310;2023-08-31T14:47:21;17.70;99.90
12386;DHT22;6257;57.634;18.310;2023-08-31T14:49:48;17.70;99.90
12386;DHT22;6257;57.634;18.310;2023-08-31T14:52:15;17.80;99.90
12386;DHT22;6257;57.634;18.310;2023-08-31T14:54:42;17.60;99.90
12386;DHT22;6257;57.634;18.310;2023-08-31T14:57:09;17.60;99.90
12386;DHT22;6257;57.634;18.310;2023-08-31T15:02:05;17.40;99.90
12386;DHT22;6257;57.634;18.310;2023-08-31T15:04:32;17.30;99.90
12386;DHT22;6257;57.634;18.310;2023-08-31T15:06:59;17.20;99.90
12386;DHT22;6257;57.634;18.310;2023-08-31T15:09:27;17.10;99.90
12386;DHT22;6257;57.634;18.310;2023-08-31T15:11:53;17.00;99.90
12386;DHT22;6257;57.634;18.310;2023-08-31T15:14:20;16.90;99.90
12386;DHT22;6257;57.634;18.310;2023-08-31T15:16:49;16.90;99.90
12386;DHT22;6257;57.634;18.310;2023-08-31T15:19:17;16.80;99.90
12386;DHT22;6257;57.634;18.310;2023-08-31T15:21:44;16.80;99.90
12386;DHT22;6257;57.634;18.310;2023-08-31T15:24:11;16.70;99.90
12386;DHT22;6257;57.634;18.310;2023-08-31T15:26:38;16.70;99.90
12386;DHT22;6257;57.634;18.310;2023-08-31T15:29:05;16.70;99.90
12386;DHT22;6257;57.634;18.310;2023-08-31T15:31:32;16.70;99.90
12386;DHT22;6257;57.634;18.310;2023-08-31T15:36:29;16.70;99.90
12386;DHT22;6257;57.634;18.310;2023-08-31T15:38:56;16.60;99.90
12386;DHT22;6257;57.634;18.310;2023-08-31T15:41:23;16.60;99.90
12386;DHT22;6257;57.634;18.310;2023-08-31T15:43:50;16.70;99.90
12386;DHT22;6257;57.634;18.310;2023-08-31T15:46:17;16.70;99.90
12386;DHT22;6257;57.634;18.310;2023-08-31T15:48:44;16.60;99.90
12386;DHT22;6257;57.634;18.310;2023-08-31T15:51:13;16.70;99.90
12386;DHT22;6257;57.634;18.310;2023-08-31T15:53:40;16.70;99.90
12386;DHT22;6257;57.634;18.310;2023-08-31T15:56:06;16.70;99.90
12386;DHT22;6257;57.634;18.310;2023-08-31T15:58:34;16.70;99.90
12386;DHT22;6257;57.634;18.310;2023-08-31T16:01:01;16.70;99.90
12386;DHT22;6257;57.634;18.310;2023-08-31T16:03:30;16.60;99.90
12386;DHT22;6257;57.634;18.310;2023-08-31T16:05:57;16.50;99.90